createdAt,value
2023-02-06T00:02:24.064Z,-3.64
2023-02-06T00:05:40.576Z,-3.76
2023-02-06T00:08:56.925Z,-3.73
2023-02-06T00:12:14.753Z,-3.75
2023-02-06T00:15:31.113Z,-3.78
2023-02-06T00:18:47.368Z,-3.86
2023-02-06T00:22:03.585Z,-3.83
2023-02-06T00:25:20.021Z,-3.82
2023-02-06T00:28:36.290Z,-3.92
2023-02-06T00:31:52.573Z,-3.81
2023-02-06T00:35:08.817Z,-3.87
2023-02-06T00:38:25.114Z,-3.85
2023-02-06T00:41:41.302Z,-3.88
2023-02-06T00:44:57.558Z,-3.84
2023-02-06T00:48:16.063Z,-3.81
2023-02-06T00:51:32.193Z,-3.79
2023-02-06T00:54:48.480Z,-3.80
2023-02-06T00:58:04.701Z,-3.83
2023-02-06T01:01:20.775Z,-3.80
2023-02-06T01:04:37.021Z,-3.78
2023-02-06T01:07:55.003Z,-3.75
2023-02-06T01:11:19.597Z,-3.71
2023-02-06T01:14:35.795Z,-3.86
2023-02-06T01:17:52.853Z,-3.89
2023-02-06T01:21:09.113Z,-3.84
2023-02-06T01:24:25.249Z,-3.90
2023-02-06T01:27:43.058Z,-3.86
2023-02-06T01:30:59.392Z,-3.88
2023-02-06T01:34:17.298Z,-3.85
2023-02-06T01:37:34.471Z,-3.85
2023-02-06T01:40:50.651Z,-3.81
2023-02-06T01:44:27.022Z,-3.82
2023-02-06T01:47:43.289Z,-3.82
2023-02-06T01:51:02.915Z,-3.82
2023-02-06T01:54:21.729Z,-3.85
2023-02-06T01:57:40.007Z,-3.80
2023-02-06T02:00:56.886Z,-3.83
2023-02-06T02:04:19.095Z,-3.88
2023-02-06T02:07:39.193Z,-3.85
2023-02-06T02:10:55.586Z,-3.74
2023-02-06T02:14:15.333Z,-3.70
2023-02-06T02:17:39.940Z,-3.74
2023-02-06T02:21:40.076Z,-3.79
2023-02-06T02:25:18.760Z,-3.77
2023-02-06T02:29:17.860Z,-3.77
2023-02-06T02:33:12.140Z,-3.78
2023-02-06T02:36:33.429Z,-3.77
2023-02-06T02:39:56.143Z,-3.75
2023-02-06T02:43:20.035Z,-3.78
2023-02-06T02:46:40.849Z,-3.73
2023-02-06T02:49:57.294Z,-3.69
2023-02-06T02:53:15.643Z,-3.80
2023-02-06T02:56:34.256Z,-3.88
2023-02-06T02:59:53.872Z,-3.90
2023-02-06T03:03:13.473Z,-3.95
2023-02-06T03:07:11.836Z,-3.98
2023-02-06T03:10:34.368Z,-3.97
2023-02-06T03:13:55.071Z,-3.99
2023-02-06T03:17:15.712Z,-3.92
2023-02-06T03:20:35.758Z,-3.90
2023-02-06T03:23:55.939Z,-3.94
2023-02-06T03:27:16.335Z,-3.91
2023-02-06T03:30:35.105Z,-3.87
2023-02-06T03:33:54.715Z,-3.93
2023-02-06T03:37:11.192Z,-3.93
2023-02-06T03:40:29.244Z,-3.95
2023-02-06T03:43:46.055Z,-3.94
2023-02-06T03:47:04.872Z,-4.00
2023-02-06T03:50:22.769Z,-4.00
2023-02-06T03:53:41.772Z,-3.94
2023-02-06T03:57:01.954Z,-3.87
2023-02-06T04:00:20.734Z,-3.79
2023-02-06T04:03:37.573Z,-3.75
2023-02-06T04:06:54.685Z,-3.67
2023-02-06T04:10:11.909Z,-3.65
2023-02-06T04:13:28.045Z,-3.62
2023-02-06T04:16:44.238Z,-3.57
2023-02-06T04:20:00.554Z,-3.62
2023-02-06T04:23:17.468Z,-3.68
2023-02-06T04:26:33.843Z,-3.61
2023-02-06T04:29:50.543Z,-3.54
2023-02-06T04:33:07.195Z,-3.60
2023-02-06T04:36:23.282Z,-3.60
2023-02-06T04:39:39.914Z,-3.56
2023-02-06T04:42:56.059Z,-3.52
2023-02-06T04:46:12.707Z,-3.47
2023-02-06T04:49:30.859Z,-3.47
2023-02-06T04:52:46.913Z,-3.51
2023-02-06T04:56:08.615Z,-3.49
2023-02-06T04:59:25.404Z,-3.45
2023-02-06T05:02:41.602Z,-3.47
2023-02-06T05:05:57.909Z,-3.50
2023-02-06T05:09:15.042Z,-3.49
2023-02-06T05:12:31.138Z,-3.52
2023-02-06T05:15:47.845Z,-3.58
2023-02-06T05:19:05.356Z,-3.57
2023-02-06T05:22:21.664Z,-3.50
2023-02-06T05:25:38.406Z,-3.46
2023-02-06T05:28:55.186Z,-3.48
2023-02-06T05:32:11.853Z,-3.64
2023-02-06T05:35:28.449Z,-3.72
2023-02-06T05:38:44.780Z,-3.86
2023-02-06T05:42:00.980Z,-3.90
2023-02-06T05:45:18.748Z,-3.93
2023-02-06T05:48:35.979Z,-3.99
2023-02-06T05:51:52.176Z,-3.99
2023-02-06T05:55:08.371Z,-3.99
2023-02-06T05:58:25.109Z,-4.00
2023-02-06T06:01:41.202Z,-4.02
2023-02-06T06:04:57.471Z,-4.11
2023-02-06T06:08:13.882Z,-4.12
2023-02-06T06:11:30.690Z,-4.12
2023-02-06T06:14:47.756Z,-4.15
2023-02-06T06:18:03.915Z,-4.16
2023-02-06T06:21:20.048Z,-4.26
2023-02-06T06:24:36.821Z,-4.42
2023-02-06T06:27:53.085Z,-4.42
2023-02-06T06:31:16.000Z,-4.34
2023-02-06T06:34:33.190Z,-4.35
2023-02-06T06:37:49.305Z,-4.39
2023-02-06T06:41:05.440Z,-4.29
2023-02-06T06:44:21.703Z,-4.27
2023-02-06T06:47:37.901Z,-4.29
2023-02-06T06:50:54.218Z,-4.30
2023-02-06T06:54:10.410Z,-4.29
2023-02-06T06:57:26.557Z,-4.34
2023-02-06T07:00:43.072Z,-4.29
2023-02-06T07:03:59.470Z,-4.23
2023-02-06T07:07:15.773Z,-4.21
2023-02-06T07:10:32.149Z,-4.18
2023-02-06T07:13:49.548Z,-4.17
2023-02-06T07:17:05.714Z,-4.12
2023-02-06T07:20:22.619Z,-4.06
2023-02-06T07:23:39.050Z,-3.96
2023-02-06T07:26:55.491Z,-3.90
2023-02-06T07:30:13.154Z,-3.83
2023-02-06T07:33:29.284Z,-3.74
2023-02-06T07:36:46.560Z,-3.57
2023-02-06T07:40:02.668Z,-3.58
2023-02-06T07:43:20.191Z,-3.47
2023-02-06T07:46:36.485Z,-3.41
2023-02-06T07:49:52.817Z,-3.36
2023-02-06T07:53:09.439Z,-3.22
2023-02-06T07:56:28.508Z,-3.18
2023-02-06T07:59:44.642Z,-3.18
2023-02-06T08:03:01.634Z,-3.13
2023-02-06T08:06:24.276Z,-3.06
2023-02-06T08:09:41.697Z,-2.93
2023-02-06T08:12:57.916Z,-3.02
2023-02-06T08:16:22.136Z,-2.98
2023-02-06T08:19:38.586Z,-2.87
2023-02-06T08:22:54.913Z,-2.88
2023-02-06T08:26:17.595Z,-2.82
2023-02-06T08:29:37.093Z,-2.78
2023-02-06T08:32:53.149Z,-2.62
2023-02-06T08:36:12.832Z,-2.51
2023-02-06T08:39:29.041Z,-2.36
2023-02-06T08:42:45.122Z,-2.30
2023-02-06T08:46:02.614Z,-2.26
2023-02-06T08:49:23.836Z,-2.13
2023-02-06T08:52:41.037Z,-1.87
2023-02-06T08:55:57.623Z,-2.04
2023-02-06T08:59:15.648Z,-1.86
2023-02-06T09:02:31.974Z,-1.60
2023-02-06T09:05:48.236Z,-1.65
2023-02-06T09:09:06.048Z,-1.59
2023-02-06T09:12:22.806Z,-1.57
2023-02-06T09:15:40.075Z,-1.42
2023-02-06T09:19:00.847Z,-1.41
2023-02-06T09:22:17.175Z,-1.45
2023-02-06T09:25:33.442Z,-1.37
2023-02-06T09:28:50.663Z,-1.18
2023-02-06T09:32:07.538Z,-1.23
2023-02-06T09:35:24.031Z,-1.10
2023-02-06T09:38:40.734Z,-1.05
2023-02-06T09:42:00.541Z,-1.04
2023-02-06T09:45:22.809Z,-0.91
2023-02-06T09:48:44.580Z,-0.96
2023-02-06T09:52:47.575Z,-0.83
2023-02-06T09:56:10.961Z,-0.77
2023-02-06T09:59:36.219Z,-0.80
2023-02-06T10:03:28.484Z,-0.83
2023-02-06T10:06:49.880Z,-1.07
2023-02-06T10:10:10.982Z,-1.08
2023-02-06T10:13:32.965Z,-1.22
2023-02-06T10:16:53.787Z,-1.20
2023-02-06T10:20:16.211Z,-1.51
2023-02-06T10:23:38.182Z,-1.52
2023-02-06T10:26:58.444Z,-1.42
2023-02-06T10:30:19.340Z,-1.44
2023-02-06T10:33:41.177Z,-1.50
2023-02-06T10:37:07.917Z,-1.45
2023-02-06T10:40:43.721Z,-1.47
2023-02-06T10:44:05.267Z,-1.49
2023-02-06T10:47:30.919Z,-1.59
2023-02-06T10:50:51.843Z,-1.49
2023-02-06T10:54:11.619Z,-1.51
2023-02-06T10:57:30.692Z,-1.63
2023-02-06T11:00:49.292Z,-1.64
2023-02-06T11:04:11.361Z,-1.58
2023-02-06T11:07:31.881Z,-1.55
2023-02-06T11:10:48.874Z,-1.66
2023-02-06T11:14:10.272Z,-1.88
2023-02-06T11:17:29.201Z,-1.71
2023-02-06T11:20:49.358Z,-1.65
2023-02-06T11:24:22.037Z,-1.59
2023-02-06T11:27:40.963Z,-1.63
2023-02-06T11:31:04.151Z,-1.61
2023-02-06T11:34:32.520Z,-1.52
2023-02-06T11:37:50.346Z,-1.56
2023-02-06T11:41:10.184Z,-1.58
2023-02-06T11:44:26.760Z,-1.58
2023-02-06T11:47:44.936Z,-1.53
2023-02-06T11:51:05.278Z,-1.54
2023-02-06T11:54:29.872Z,-1.58
2023-02-06T11:57:46.379Z,-1.66
2023-02-06T12:01:13.119Z,-1.58
2023-02-06T12:04:34.794Z,-1.55
2023-02-06T12:07:58.332Z,-1.50
2023-02-06T12:11:21.717Z,-1.58
2023-02-06T12:14:43.926Z,-1.61
2023-02-06T12:18:04.901Z,-1.66
2023-02-06T12:21:28.589Z,-1.67
2023-02-06T12:24:49.115Z,-1.69
2023-02-06T12:28:12.081Z,-1.84
2023-02-06T12:31:35.971Z,-1.99
2023-02-06T12:35:02.015Z,-1.95
2023-02-06T12:38:29.507Z,-1.92
2023-02-06T12:41:53.701Z,-1.90
2023-02-06T12:45:17.608Z,-1.81
2023-02-06T12:48:42.857Z,-1.82
2023-02-06T12:52:05.674Z,-2.02
2023-02-06T12:55:28.605Z,-1.91
2023-02-06T12:58:54.981Z,-2.00
2023-02-06T13:02:21.016Z,-1.94
2023-02-06T13:05:41.246Z,-1.85
2023-02-06T13:09:02.348Z,-1.85
2023-02-06T13:12:24.641Z,-1.83
2023-02-06T13:15:46.277Z,-1.84
2023-02-06T13:19:08.939Z,-1.78
2023-02-06T13:22:51.747Z,-1.80
2023-02-06T13:26:08.222Z,-1.79
2023-02-06T13:29:34.591Z,-1.88
2023-02-06T13:32:56.880Z,-1.96
2023-02-06T13:36:17.909Z,-1.98
2023-02-06T13:39:42.298Z,-1.96
2023-02-06T13:43:02.703Z,-1.95
2023-02-06T13:46:22.644Z,-1.96
2023-02-06T13:50:21.882Z,-1.95
2023-02-06T13:54:07.952Z,-1.96
2023-02-06T13:58:06.757Z,-1.96
2023-02-06T14:01:29.990Z,-1.96
2023-02-06T14:04:48.802Z,-1.92
2023-02-06T14:09:06.757Z,-2.08
2023-02-06T14:13:33.406Z,-2.10
2023-02-06T14:17:59.561Z,-2.03
2023-02-06T14:21:28.040Z,-2.05
2023-02-06T14:25:17.355Z,-1.99
2023-02-06T14:28:39.928Z,-2.00
2023-02-06T14:32:12.056Z,-1.99
2023-02-06T14:35:46.358Z,-1.97
2023-02-06T14:39:37.559Z,-1.98
2023-02-06T14:42:56.801Z,-2.07
2023-02-06T14:46:18.368Z,-2.01
2023-02-06T14:49:40.416Z,-1.98
2023-02-06T14:53:01.432Z,-2.07
2023-02-06T14:56:25.039Z,-2.05
2023-02-06T14:59:41.559Z,-2.09
2023-02-06T15:03:13.721Z,-2.11
2023-02-06T15:06:41.793Z,-2.15
2023-02-06T15:10:13.362Z,-2.21
2023-02-06T15:13:36.721Z,-2.32
2023-02-06T15:17:00.027Z,-2.30
2023-02-06T15:20:41.130Z,-2.34
2023-02-06T15:24:08.273Z,-2.41
2023-02-06T15:27:32.870Z,-2.45
2023-02-06T15:30:49.591Z,-2.45
2023-02-06T15:34:08.959Z,-2.53
2023-02-06T15:37:36.559Z,-2.54
2023-02-06T15:40:58.221Z,-2.58
2023-02-06T15:44:20.902Z,-2.60
2023-02-06T15:47:39.016Z,-2.61
2023-02-06T15:51:08.549Z,-2.63
2023-02-06T15:54:32.981Z,-2.66
2023-02-06T15:57:51.749Z,-2.66
2023-02-06T16:01:10.334Z,-2.69
2023-02-06T16:04:31.829Z,-2.70
2023-02-06T16:07:49.938Z,-2.72
2023-02-06T16:11:13.875Z,-2.74
2023-02-06T16:14:37.321Z,-2.76
2023-02-06T16:17:53.779Z,-2.85
2023-02-06T16:21:39.510Z,-3.15
2023-02-06T16:24:57.179Z,-3.23
2023-02-06T16:28:26.656Z,-3.51
2023-02-06T16:31:46.786Z,-3.77
2023-02-06T16:35:04.115Z,-3.82
2023-02-06T16:38:21.317Z,-3.91
2023-02-06T16:41:41.539Z,-4.02
2023-02-06T16:45:03.080Z,-4.13
2023-02-06T16:48:23.021Z,-4.15
2023-02-06T16:51:41.038Z,-4.20
2023-02-06T16:54:59.697Z,-4.20
2023-02-06T16:58:21.368Z,-4.30
2023-02-06T17:01:38.036Z,-4.39
2023-02-06T17:04:55.768Z,-4.47
2023-02-06T17:08:17.340Z,-4.53
2023-02-06T17:11:34.597Z,-4.57
2023-02-06T17:14:51.606Z,-4.66
2023-02-06T17:18:08.510Z,-4.74
2023-02-06T17:21:30.140Z,-4.81
2023-02-06T17:24:48.595Z,-4.76
2023-02-06T17:28:08.288Z,-4.79
2023-02-06T17:31:25.906Z,-4.78
2023-02-06T17:34:43.808Z,-4.75
2023-02-06T17:38:01.252Z,-4.89
2023-02-06T17:41:17.888Z,-4.96
2023-02-06T17:44:34.884Z,-4.99
2023-02-06T17:47:51.797Z,-5.10
2023-02-06T17:51:08.341Z,-5.10
2023-02-06T17:54:24.994Z,-5.13
2023-02-06T17:57:44.493Z,-5.24
2023-02-06T18:01:01.275Z,-5.31
2023-02-06T18:04:22.345Z,-5.32
2023-02-06T18:07:39.076Z,-5.35
2023-02-06T18:10:56.329Z,-5.36
2023-02-06T18:14:13.203Z,-5.46
2023-02-06T18:17:31.818Z,-5.52
2023-02-06T18:20:48.728Z,-5.54
2023-02-06T18:24:05.999Z,-5.45
2023-02-06T18:27:24.013Z,-5.49
2023-02-06T18:30:42.842Z,-5.65
2023-02-06T18:34:01.128Z,-5.76
2023-02-06T18:37:17.981Z,-5.70
2023-02-06T18:40:35.103Z,-5.77
2023-02-06T18:43:52.373Z,-5.76
2023-02-06T18:47:09.136Z,-5.71
2023-02-06T18:50:28.469Z,-5.77
2023-02-06T18:53:45.555Z,-5.67
2023-02-06T18:57:02.198Z,-5.74
2023-02-06T19:00:24.356Z,-5.83
2023-02-06T19:03:42.001Z,-5.90
2023-02-06T19:06:59.106Z,-5.95
2023-02-06T19:10:19.607Z,-6.03
2023-02-06T19:13:36.022Z,-6.11
2023-02-06T19:16:53.391Z,-6.15
2023-02-06T19:20:10.316Z,-6.15
2023-02-06T19:23:26.939Z,-6.13
2023-02-06T19:26:44.356Z,-6.11
2023-02-06T19:30:04.294Z,-6.23
2023-02-06T19:33:21.765Z,-6.22
2023-02-06T19:36:41.442Z,-6.25
2023-02-06T19:39:59.443Z,-6.34
2023-02-06T19:43:16.815Z,-6.37
2023-02-06T19:46:36.422Z,-6.33
2023-02-06T19:49:54.494Z,-6.30
2023-02-06T19:53:17.772Z,-6.35
2023-02-06T19:56:40.480Z,-6.38
2023-02-06T19:59:57.049Z,-6.46
2023-02-06T20:03:15.326Z,-6.48
2023-02-06T20:06:34.813Z,-6.44
2023-02-06T20:09:52.070Z,-6.59
2023-02-06T20:13:10.046Z,-6.50
2023-02-06T20:16:30.339Z,-6.50
2023-02-06T20:19:47.220Z,-6.53
2023-02-06T20:23:03.859Z,-6.52
2023-02-06T20:26:22.041Z,-6.60
2023-02-06T20:29:43.263Z,-6.61
2023-02-06T20:33:00.092Z,-6.62
2023-02-06T20:36:21.213Z,-6.58
2023-02-06T20:39:42.776Z,-6.75
2023-02-06T20:43:00.852Z,-6.85
2023-02-06T20:46:17.968Z,-6.93
2023-02-06T20:49:36.704Z,-6.93
2023-02-06T20:52:53.350Z,-7.06
2023-02-06T20:56:10.247Z,-7.00
2023-02-06T20:59:28.238Z,-7.03
2023-02-06T21:02:45.032Z,-7.09
2023-02-06T21:06:08.553Z,-7.05
2023-02-06T21:09:26.824Z,-7.18
2023-02-06T21:12:43.175Z,-7.24
2023-02-06T21:16:05.309Z,-7.22
2023-02-06T21:19:26.432Z,-7.10
2023-02-06T21:22:44.118Z,-7.16
2023-02-06T21:26:05.331Z,-7.23
2023-02-06T21:29:23.901Z,-7.20
2023-02-06T21:32:41.095Z,-7.11
2023-02-06T21:36:00.879Z,-7.05
2023-02-06T21:39:20.545Z,-7.01
2023-02-06T21:42:37.592Z,-6.96
2023-02-06T21:45:57.894Z,-6.85
2023-02-06T21:49:14.851Z,-6.76
2023-02-06T21:52:32.257Z,-6.78
2023-02-06T21:55:53.774Z,-6.71
2023-02-06T21:59:14.717Z,-6.67
2023-02-06T22:02:31.604Z,-6.60
2023-02-06T22:05:48.515Z,-6.59
2023-02-06T22:09:08.000Z,-6.48
2023-02-06T22:12:24.865Z,-6.50
2023-02-06T22:15:42.420Z,-6.39
2023-02-06T22:19:02.970Z,-6.33
2023-02-06T22:22:20.062Z,-6.19
2023-02-06T22:25:37.025Z,-6.24
2023-02-06T22:28:55.844Z,-6.19
2023-02-06T22:32:12.995Z,-6.21
2023-02-06T22:35:29.716Z,-6.22
2023-02-06T22:38:48.215Z,-6.17
2023-02-06T22:42:04.840Z,-6.17
2023-02-06T22:45:21.994Z,-6.13
2023-02-06T22:48:39.637Z,-6.15
2023-02-06T22:51:58.347Z,-6.13
2023-02-06T22:55:16.152Z,-6.06
2023-02-06T22:58:33.232Z,-6.06
2023-02-06T23:01:52.371Z,-6.07
2023-02-06T23:05:11.458Z,-6.04
2023-02-06T23:08:28.026Z,-6.05
2023-02-06T23:11:45.422Z,-6.00
2023-02-06T23:15:02.309Z,-6.00
2023-02-06T23:18:19.468Z,-5.93
2023-02-06T23:21:36.653Z,-5.95
2023-02-06T23:24:53.954Z,-5.96
2023-02-06T23:28:10.679Z,-5.98
2023-02-06T23:31:27.275Z,-6.02
2023-02-06T23:34:44.127Z,-5.94
2023-02-06T23:38:00.620Z,-5.99
2023-02-06T23:41:21.251Z,-5.97
2023-02-06T23:44:38.456Z,-5.97
2023-02-06T23:47:54.778Z,-6.01
2023-02-06T23:51:11.332Z,-6.05
2023-02-06T23:54:27.785Z,-6.01
2023-02-06T23:57:47.859Z,-6.03
